sensor_id;sensor_type;location;lat;lon;timestamp;P1;durP1;ratioP1;P2;durP2;ratioP2
14890;SDS011;7537;48.014;11.590;2022-09-03T00:03:41;2.37;;;2.31;;
14890;SDS011;7537;48.014;11.590;2022-09-03T00:09:12;1.49;;;1.64;;
14890;SDS011;7537;48.014;11.590;2022-09-03T00:14:41;1.92;;;2.06;;
14890;SDS011;7537;48.014;11.590;2022-09-03T00:20:12;4.02;;;2.52;;
14890;SDS011;7537;48.014;11.590;2022-09-03T00:25:42;2.51;;;2.29;;
14890;SDS011;7537;48.014;11.590;2022-09-03T00:31:12;2.27;;;2.00;;
14890;SDS011;7537;48.014;11.590;2022-09-03T00:36:46;2.37;;;1.53;;
14890;SDS011;7537;48.014;11.590;2022-09-03T00:42:18;4.40;;;2.46;;
14890;SDS011;7537;48.014;11.590;2022-09-03T00:47:51;2.16;;;2.25;;
14890;SDS011;7537;48.014;11.590;2022-09-03T00:53:23;2.14;;;2.27;;
14890;SDS011;7537;48.014;11.590;2022-09-03T00:58:54;1.85;;;1.96;;
14890;SDS011;7537;48.014;11.590;2022-09-03T01:04:37;2.29;;;2.40;;
14890;SDS011;7537;48.014;11.590;2022-09-03T01:10:11;2.83;;;2.39;;
14890;SDS011;7537;48.014;11.590;2022-09-03T01:15:42;2.33;;;2.38;;
14890;SDS011;7537;48.014;11.590;2022-09-03T01:27:07;2.18;;;2.27;;
14890;SDS011;7537;48.014;11.590;2022-09-03T01:32:38;2.18;;;2.32;;
14890;SDS011;7537;48.014;11.590;2022-09-03T01:38:14;2.03;;;2.12;;
14890;SDS011;7537;48.014;11.590;2022-09-03T01:43:46;2.20;;;2.09;;
14890;SDS011;7537;48.014;11.590;2022-09-03T01:49:18;2.19;;;2.34;;
14890;SDS011;7537;48.014;11.590;2022-09-03T01:54:57;2.05;;;2.17;;
14890;SDS011;7537;48.014;11.590;2022-09-03T02:00:25;2.56;;;1.92;;
14890;SDS011;7537;48.014;11.590;2022-09-03T02:05:53;2.31;;;2.45;;
14890;SDS011;7537;48.014;11.590;2022-09-03T02:11:21;1.94;;;1.96;;
14890;SDS011;7537;48.014;11.590;2022-09-03T02:16:50;2.20;;;2.29;;
14890;SDS011;7537;48.014;11.590;2022-09-03T02:22:17;2.29;;;2.35;;
14890;SDS011;7537;48.014;11.590;2022-09-03T02:27:44;2.34;;;2.44;;
14890;SDS011;7537;48.014;11.590;2022-09-03T02:33:12;2.73;;;2.07;;
14890;SDS011;7537;48.014;11.590;2022-09-03T02:38:43;1.94;;;1.99;;
14890;SDS011;7537;48.014;11.590;2022-09-03T02:44:12;2.45;;;2.50;;
14890;SDS011;7537;48.014;11.590;2022-09-03T02:49:43;2.36;;;2.54;;
14890;SDS011;7537;48.014;11.590;2022-09-03T02:55:10;2.41;;;2.52;;
14890;SDS011;7537;48.014;11.590;2022-09-03T03:00:41;2.84;;;2.94;;
14890;SDS011;7537;48.014;11.590;2022-09-03T03:06:08;3.61;;;2.64;;
14890;SDS011;7537;48.014;11.590;2022-09-03T03:11:36;2.72;;;2.90;;
14890;SDS011;7537;48.014;11.590;2022-09-03T03:17:04;2.61;;;2.66;;
14890;SDS011;7537;48.014;11.590;2022-09-03T03:22:31;2.64;;;2.71;;
14890;SDS011;7537;48.014;11.590;2022-09-03T03:27:58;2.71;;;2.74;;
14890;SDS011;7537;48.014;11.590;2022-09-03T03:33:27;2.96;;;3.17;;
14890;SDS011;7537;48.014;11.590;2022-09-03T03:38:58;2.81;;;2.87;;
14890;SDS011;7537;48.014;11.590;2022-09-03T03:44:26;2.43;;;2.54;;
14890;SDS011;7537;48.014;11.590;2022-09-03T03:49:53;2.89;;;2.90;;
14890;SDS011;7537;48.014;11.590;2022-09-03T03:55:21;2.52;;;2.64;;
14890;SDS011;7537;48.014;11.590;2022-09-03T04:00:48;2.89;;;2.76;;
14890;SDS011;7537;48.014;11.590;2022-09-03T04:06:18;2.70;;;2.84;;
14890;SDS011;7537;48.014;11.590;2022-09-03T04:11:45;2.66;;;2.61;;
14890;SDS011;7537;48.014;11.590;2022-09-03T04:17:14;4.19;;;2.83;;
14890;SDS011;7537;48.014;11.590;2022-09-03T04:22:41;2.79;;;2.89;;
14890;SDS011;7537;48.014;11.590;2022-09-03T04:28:08;2.72;;;2.83;;
14890;SDS011;7537;48.014;11.590;2022-09-03T04:33:36;2.85;;;2.89;;
14890;SDS011;7537;48.014;11.590;2022-09-03T04:39:08;2.79;;;2.96;;
14890;SDS011;7537;48.014;11.590;2022-09-03T04:44:36;2.74;;;2.82;;
14890;SDS011;7537;48.014;11.590;2022-09-03T04:50:03;2.59;;;2.63;;
14890;SDS011;7537;48.014;11.590;2022-09-03T04:55:33;3.48;;;3.06;;
14890;SDS011;7537;48.014;11.590;2022-09-03T05:01:06;2.66;;;2.84;;
14890;SDS011;7537;48.014;11.590;2022-09-03T05:06:34;3.21;;;3.29;;
14890;SDS011;7537;48.014;11.590;2022-09-03T05:12:04;2.84;;;2.96;;
14890;SDS011;7537;48.014;11.590;2022-09-03T05:17:31;2.51;;;2.71;;
14890;SDS011;7537;48.014;11.590;2022-09-03T05:23:01;2.79;;;2.21;;
14890;SDS011;7537;48.014;11.590;2022-09-03T05:28:29;2.61;;;2.73;;
14890;SDS011;7537;48.014;11.590;2022-09-03T05:33:57;2.32;;;2.12;;
14890;SDS011;7537;48.014;11.590;2022-09-03T05:39:28;2.40;;;2.54;;
14890;SDS011;7537;48.014;11.590;2022-09-03T05:44:57;3.73;;;2.61;;
14890;SDS011;7537;48.014;11.590;2022-09-03T05:50:24;2.29;;;2.44;;
14890;SDS011;7537;48.014;11.590;2022-09-03T05:55:54;2.93;;;3.01;;
14890;SDS011;7537;48.014;11.590;2022-09-03T06:01:22;2.79;;;2.94;;
14890;SDS011;7537;48.014;11.590;2022-09-03T06:06:50;1.76;;;1.91;;
14890;SDS011;7537;48.014;11.590;2022-09-03T06:12:18;2.59;;;2.47;;
14890;SDS011;7537;48.014;11.590;2022-09-03T06:17:46;3.07;;;3.16;;
14890;SDS011;7537;48.014;11.590;2022-09-03T06:23:14;5.34;;;3.27;;
14890;SDS011;7537;48.014;11.590;2022-09-03T06:28:41;2.79;;;3.01;;
14890;SDS011;7537;48.014;11.590;2022-09-03T06:34:08;2.86;;;2.86;;
14890;SDS011;7537;48.014;11.590;2022-09-03T06:39:44;3.68;;;3.81;;
14890;SDS011;7537;48.014;11.590;2022-09-03T06:45:11;2.69;;;2.86;;
14890;SDS011;7537;48.014;11.590;2022-09-03T06:50:40;3.02;;;3.04;;
14890;SDS011;7537;48.014;11.590;2022-09-03T06:56:08;3.19;;;3.27;;
14890;SDS011;7537;48.014;11.590;2022-09-03T07:01:36;2.60;;;2.69;;
14890;SDS011;7537;48.014;11.590;2022-09-03T07:07:03;2.71;;;2.77;;
14890;SDS011;7537;48.014;11.590;2022-09-03T07:12:31;2.85;;;2.98;;
14890;SDS011;7537;48.014;11.590;2022-09-03T07:17:58;3.12;;;3.24;;
14890;SDS011;7537;48.014;11.590;2022-09-03T07:23:27;4.46;;;3.36;;
14890;SDS011;7537;48.014;11.590;2022-09-03T07:28:55;3.06;;;2.85;;
14890;SDS011;7537;48.014;11.590;2022-09-03T07:34:23;3.20;;;3.29;;
14890;SDS011;7537;48.014;11.590;2022-09-03T07:39:53;3.57;;;3.69;;
14890;SDS011;7537;48.014;11.590;2022-09-03T07:45:21;3.66;;;3.41;;
14890;SDS011;7537;48.014;11.590;2022-09-03T07:50:48;3.54;;;3.39;;
14890;SDS011;7537;48.014;11.590;2022-09-03T07:56:17;4.47;;;4.23;;
14890;SDS011;7537;48.014;11.590;2022-09-03T08:01:44;3.77;;;3.89;;
14890;SDS011;7537;48.014;11.590;2022-09-03T08:07:12;3.32;;;3.51;;
14890;SDS011;7537;48.014;11.590;2022-09-03T08:12:39;4.33;;;4.50;;
14890;SDS011;7537;48.014;11.590;2022-09-03T08:18:06;5.40;;;4.59;;
14890;SDS011;7537;48.014;11.590;2022-09-03T08:23:36;4.36;;;4.22;;
14890;SDS011;7537;48.014;11.590;2022-09-03T08:29:05;3.81;;;3.98;;
14890;SDS011;7537;48.014;11.590;2022-09-03T08:34:33;3.92;;;4.03;;
14890;SDS011;7537;48.014;11.590;2022-09-03T08:40:09;5.06;;;4.12;;
14890;SDS011;7537;48.014;11.590;2022-09-03T08:45:36;4.01;;;4.24;;
14890;SDS011;7537;48.014;11.590;2022-09-03T08:51:04;4.09;;;4.26;;
14890;SDS011;7537;48.014;11.590;2022-09-03T08:56:33;4.61;;;4.24;;
14890;SDS011;7537;48.014;11.590;2022-09-03T09:02:07;3.94;;;4.01;;
14890;SDS011;7537;48.014;11.590;2022-09-03T09:07:39;3.15;;;3.31;;
14890;SDS011;7537;48.014;11.590;2022-09-03T09:13:09;2.66;;;2.74;;
14890;SDS011;7537;48.014;11.590;2022-09-03T09:18:44;2.89;;;3.00;;
14890;SDS011;7537;48.014;11.590;2022-09-03T09:24:16;2.69;;;2.91;;
14890;SDS011;7537;48.014;11.590;2022-09-03T09:29:47;2.37;;;2.44;;
14890;SDS011;7537;48.014;11.590;2022-09-03T09:35:17;2.28;;;2.23;;
14890;SDS011;7537;48.014;11.590;2022-09-03T09:40:53;2.11;;;2.27;;
14890;SDS011;7537;48.014;11.590;2022-09-03T09:46:21;1.45;;;1.66;;
14890;SDS011;7537;48.014;11.590;2022-09-03T09:51:58;2.03;;;2.04;;
14890;SDS011;7537;48.014;11.590;2022-09-03T09:57:26;2.14;;;2.27;;
14890;SDS011;7537;48.014;11.590;2022-09-03T10:02:53;1.71;;;1.57;;
14890;SDS011;7537;48.014;11.590;2022-09-03T10:08:22;1.72;;;1.91;;
14890;SDS011;7537;48.014;11.590;2022-09-03T10:13:50;1.53;;;1.68;;
14890;SDS011;7537;48.014;11.590;2022-09-03T10:19:18;1.32;;;1.44;;
14890;SDS011;7537;48.014;11.590;2022-09-03T10:24:48;1.32;;;1.42;;
14890;SDS011;7537;48.014;11.590;2022-09-03T10:30:19;1.14;;;1.22;;
14890;SDS011;7537;48.014;11.590;2022-09-03T10:35:48;1.22;;;1.29;;
14890;SDS011;7537;48.014;11.590;2022-09-03T10:41:26;2.14;;;2.03;;
14890;SDS011;7537;48.014;11.590;2022-09-03T10:46:58;1.27;;;1.42;;
14890;SDS011;7537;48.014;11.590;2022-09-03T10:52:30;1.14;;;1.29;;
14890;SDS011;7537;48.014;11.590;2022-09-03T10:58:07;1.54;;;1.60;;
14890;SDS011;7537;48.014;11.590;2022-09-03T11:03:40;1.07;;;1.19;;
14890;SDS011;7537;48.014;11.590;2022-09-03T11:09:12;2.02;;;1.99;;
14890;SDS011;7537;48.014;11.590;2022-09-03T11:14:44;2.60;;;1.47;;
14890;SDS011;7537;48.014;11.590;2022-09-03T11:20:16;1.41;;;1.56;;
14890;SDS011;7537;48.014;11.590;2022-09-03T11:25:46;1.78;;;1.43;;
14890;SDS011;7537;48.014;11.590;2022-09-03T11:31:17;1.51;;;1.54;;
14890;SDS011;7537;48.014;11.590;2022-09-03T11:36:47;1.12;;;1.25;;
14890;SDS011;7537;48.014;11.590;2022-09-03T11:42:23;1.56;;;1.64;;
14890;SDS011;7537;48.014;11.590;2022-09-03T11:47:53;1.53;;;1.34;;
14890;SDS011;7537;48.014;11.590;2022-09-03T11:53:24;3.47;;;1.99;;
14890;SDS011;7537;48.014;11.590;2022-09-03T11:58:59;2.18;;;1.83;;
14890;SDS011;7537;48.014;11.590;2022-09-03T12:04:29;1.27;;;1.43;;
14890;SDS011;7537;48.014;11.590;2022-09-03T12:10:05;1.46;;;1.28;;
14890;SDS011;7537;48.014;11.590;2022-09-03T12:15:51;1.65;;;1.51;;
14890;SDS011;7537;48.014;11.590;2022-09-03T12:21:20;1.21;;;1.34;;
14890;SDS011;7537;48.014;11.590;2022-09-03T12:26:47;1.24;;;1.42;;
14890;SDS011;7537;48.014;11.590;2022-09-03T12:32:15;1.11;;;1.21;;
14890;SDS011;7537;48.014;11.590;2022-09-03T12:37:43;1.39;;;1.51;;
14890;SDS011;7537;48.014;11.590;2022-09-03T12:43:15;1.01;;;1.11;;
14890;SDS011;7537;48.014;11.590;2022-09-03T12:48:51;1.14;;;1.27;;
14890;SDS011;7537;48.014;11.590;2022-09-03T12:54:19;0.94;;;1.06;;
14890;SDS011;7537;48.014;11.590;2022-09-03T12:59:47;1.18;;;1.19;;
14890;SDS011;7537;48.014;11.590;2022-09-03T13:05:16;1.08;;;1.19;;
14890;SDS011;7537;48.014;11.590;2022-09-03T13:10:44;1.32;;;1.21;;
14890;SDS011;7537;48.014;11.590;2022-09-03T13:16:25;0.93;;;0.82;;
14890;SDS011;7537;48.014;11.590;2022-09-03T13:21:57;3.61;;;1.49;;
14890;SDS011;7537;48.014;11.590;2022-09-03T13:27:31;0.76;;;0.88;;
14890;SDS011;7537;48.014;11.590;2022-09-03T13:33:00;1.11;;;1.24;;
14890;SDS011;7537;48.014;11.590;2022-09-03T13:38:30;1.60;;;1.50;;
14890;SDS011;7537;48.014;11.590;2022-09-03T13:44:04;2.39;;;1.11;;
14890;SDS011;7537;48.014;11.590;2022-09-03T13:49:33;1.98;;;1.31;;
14890;SDS011;7537;48.014;11.590;2022-09-03T13:55:07;1.09;;;1.20;;
14890;SDS011;7537;48.014;11.590;2022-09-03T14:00:38;1.15;;;1.23;;
14890;SDS011;7537;48.014;11.590;2022-09-03T14:06:10;1.24;;;1.16;;
14890;SDS011;7537;48.014;11.590;2022-09-03T14:11:45;1.71;;;1.49;;
14890;SDS011;7537;48.014;11.590;2022-09-03T14:17:15;1.03;;;1.14;;
14890;SDS011;7537;48.014;11.590;2022-09-03T14:22:47;1.05;;;1.16;;
14890;SDS011;7537;48.014;11.590;2022-09-03T14:28:18;1.24;;;1.26;;
14890;SDS011;7537;48.014;11.590;2022-09-03T14:33:54;3.09;;;1.33;;
14890;SDS011;7537;48.014;11.590;2022-09-03T14:39:27;3.14;;;1.26;;
14890;SDS011;7537;48.014;11.590;2022-09-03T14:45:04;3.14;;;1.33;;
14890;SDS011;7537;48.014;11.590;2022-09-03T14:50:42;1.66;;;1.28;;
14890;SDS011;7537;48.014;11.590;2022-09-03T14:56:23;1.06;;;1.09;;
14890;SDS011;7537;48.014;11.590;2022-09-03T15:01:53;1.17;;;1.28;;
14890;SDS011;7537;48.014;11.590;2022-09-03T15:07:32;3.37;;;1.27;;
14890;SDS011;7537;48.014;11.590;2022-09-03T15:13:07;0.88;;;0.83;;
14890;SDS011;7537;48.014;11.590;2022-09-03T15:18:43;2.55;;;1.41;;
14890;SDS011;7537;48.014;11.590;2022-09-03T15:24:17;2.26;;;1.29;;
14890;SDS011;7537;48.014;11.590;2022-09-03T15:29:48;3.34;;;1.51;;
14890;SDS011;7537;48.014;11.590;2022-09-03T15:35:29;1.37;;;1.41;;
14890;SDS011;7537;48.014;11.590;2022-09-03T15:40:59;3.09;;;1.48;;
14890;SDS011;7537;48.014;11.590;2022-09-03T15:46:34;2.26;;;2.22;;
14890;SDS011;7537;48.014;11.590;2022-09-03T15:52:14;2.97;;;2.35;;
14890;SDS011;7537;48.014;11.590;2022-09-03T15:57:46;1.86;;;1.94;;
14890;SDS011;7537;48.014;11.590;2022-09-03T16:03:15;3.39;;;2.33;;
14890;SDS011;7537;48.014;11.590;2022-09-03T16:08:45;1.93;;;1.66;;
14890;SDS011;7537;48.014;11.590;2022-09-03T16:14:16;1.84;;;1.61;;
14890;SDS011;7537;48.014;11.590;2022-09-03T16:19:47;1.99;;;1.94;;
14890;SDS011;7537;48.014;11.590;2022-09-03T16:25:20;2.49;;;1.66;;
14890;SDS011;7537;48.014;11.590;2022-09-03T16:30:51;3.55;;;1.90;;
14890;SDS011;7537;48.014;11.590;2022-09-03T16:36:28;2.72;;;1.65;;
14890;SDS011;7537;48.014;11.590;2022-09-03T16:42:02;1.74;;;1.84;;
14890;SDS011;7537;48.014;11.590;2022-09-03T16:47:40;1.53;;;1.61;;
14890;SDS011;7537;48.014;11.590;2022-09-03T16:53:14;2.11;;;1.47;;
14890;SDS011;7537;48.014;11.590;2022-09-03T16:58:45;1.39;;;1.22;;
14890;SDS011;7537;48.014;11.590;2022-09-03T17:04:38;2.03;;;2.14;;
14890;SDS011;7537;48.014;11.590;2022-09-03T17:10:14;2.01;;;2.07;;
14890;SDS011;7537;48.014;11.590;2022-09-03T17:15:52;1.46;;;1.15;;
14890;SDS011;7537;48.014;11.590;2022-09-03T17:21:31;1.30;;;1.35;;
14890;SDS011;7537;48.014;11.590;2022-09-03T17:27:09;1.63;;;1.20;;
14890;SDS011;7537;48.014;11.590;2022-09-03T17:32:44;2.25;;;1.73;;
14890;SDS011;7537;48.014;11.590;2022-09-03T17:38:21;1.33;;;1.41;;
14890;SDS011;7537;48.014;11.590;2022-09-03T17:43:53;1.63;;;1.33;;
14890;SDS011;7537;48.014;11.590;2022-09-03T17:49:27;1.11;;;1.23;;
14890;SDS011;7537;48.014;11.590;2022-09-03T17:54:57;1.81;;;0.92;;
14890;SDS011;7537;48.014;11.590;2022-09-03T18:00:26;1.72;;;1.16;;
14890;SDS011;7537;48.014;11.590;2022-09-03T18:05:58;1.27;;;1.02;;
14890;SDS011;7537;48.014;11.590;2022-09-03T18:11:30;0.92;;;1.02;;
14890;SDS011;7537;48.014;11.590;2022-09-03T18:17:00;1.64;;;1.26;;
14890;SDS011;7537;48.014;11.590;2022-09-03T18:22:30;1.27;;;1.42;;
14890;SDS011;7537;48.014;11.590;2022-09-03T18:28:01;1.51;;;1.58;;
14890;SDS011;7537;48.014;11.590;2022-09-03T18:33:30;1.41;;;1.48;;
14890;SDS011;7537;48.014;11.590;2022-09-03T18:39:00;2.27;;;1.89;;
14890;SDS011;7537;48.014;11.590;2022-09-03T18:44:51;2.33;;;2.31;;
14890;SDS011;7537;48.014;11.590;2022-09-03T18:50:25;2.43;;;2.47;;
14890;SDS011;7537;48.014;11.590;2022-09-03T18:55:59;1.68;;;1.84;;
14890;SDS011;7537;48.014;11.590;2022-09-03T19:01:31;1.65;;;1.73;;
14890;SDS011;7537;48.014;11.590;2022-09-03T19:07:01;1.74;;;1.86;;
14890;SDS011;7537;48.014;11.590;2022-09-03T19:12:35;4.76;;;4.85;;
14890;SDS011;7537;48.014;11.590;2022-09-03T19:18:08;4.22;;;4.40;;
14890;SDS011;7537;48.014;11.590;2022-09-03T19:23:36;3.29;;;3.45;;
14890;SDS011;7537;48.014;11.590;2022-09-03T19:29:15;14.16;;;12.81;;
14890;SDS011;7537;48.014;11.590;2022-09-03T19:34:58;6.32;;;6.96;;
14890;SDS011;7537;48.014;11.590;2022-09-03T19:40:33;10.00;;;8.25;;
14890;SDS011;7537;48.014;11.590;2022-09-03T19:46:07;3.08;;;3.44;;
14890;SDS011;7537;48.014;11.590;2022-09-03T19:51:43;3.32;;;3.46;;
14890;SDS011;7537;48.014;11.590;2022-09-03T19:57:11;2.96;;;3.16;;
14890;SDS011;7537;48.014;11.590;2022-09-03T20:02:40;2.06;;;2.19;;
14890;SDS011;7537;48.014;11.590;2022-09-03T20:08:10;0.96;;;1.02;;
14890;SDS011;7537;48.014;11.590;2022-09-03T20:13:39;0.83;;;0.93;;
14890;SDS011;7537;48.014;11.590;2022-09-03T20:19:11;1.07;;;1.21;;
14890;SDS011;7537;48.014;11.590;2022-09-03T20:24:42;2.58;;;1.09;;
14890;SDS011;7537;48.014;11.590;2022-09-03T20:30:12;1.89;;;1.69;;
14890;SDS011;7537;48.014;11.590;2022-09-03T20:35:44;1.56;;;1.64;;
14890;SDS011;7537;48.014;11.590;2022-09-03T20:41:16;2.34;;;2.12;;
14890;SDS011;7537;48.014;11.590;2022-09-03T20:46:52;2.89;;;2.03;;
14890;SDS011;7537;48.014;11.590;2022-09-03T20:52:32;2.03;;;2.06;;
14890;SDS011;7537;48.014;11.590;2022-09-03T20:58:04;2.38;;;1.34;;
14890;SDS011;7537;48.014;11.590;2022-09-03T21:03:36;2.91;;;1.99;;
14890;SDS011;7537;48.014;11.590;2022-09-03T21:09:10;1.31;;;1.26;;
14890;SDS011;7537;48.014;11.590;2022-09-03T21:14:41;3.18;;;0.83;;
14890;SDS011;7537;48.014;11.590;2022-09-03T21:20:15;3.37;;;2.78;;
14890;SDS011;7537;48.014;11.590;2022-09-03T21:25:47;1.72;;;1.86;;
14890;SDS011;7537;48.014;11.590;2022-09-03T21:31:17;1.21;;;1.18;;
14890;SDS011;7537;48.014;11.590;2022-09-03T21:36:45;2.67;;;2.74;;
14890;SDS011;7537;48.014;11.590;2022-09-03T21:42:17;2.24;;;2.37;;
14890;SDS011;7537;48.014;11.590;2022-09-03T21:47:48;3.43;;;1.87;;
14890;SDS011;7537;48.014;11.590;2022-09-03T21:53:27;1.36;;;1.15;;
14890;SDS011;7537;48.014;11.590;2022-09-03T21:59:02;1.16;;;0.91;;
14890;SDS011;7537;48.014;11.590;2022-09-03T22:04:31;1.06;;;1.12;;
14890;SDS011;7537;48.014;11.590;2022-09-03T22:10:00;2.06;;;1.16;;
14890;SDS011;7537;48.014;11.590;2022-09-03T22:15:29;3.02;;;1.37;;
14890;SDS011;7537;48.014;11.590;2022-09-03T22:21:01;1.62;;;1.19;;
14890;SDS011;7537;48.014;11.590;2022-09-03T22:26:31;1.06;;;1.16;;
14890;SDS011;7537;48.014;11.590;2022-09-03T22:32:03;3.78;;;1.37;;
14890;SDS011;7537;48.014;11.590;2022-09-03T22:37:38;2.74;;;1.49;;
14890;SDS011;7537;48.014;11.590;2022-09-03T22:43:10;1.35;;;1.24;;
14890;SDS011;7537;48.014;11.590;2022-09-03T22:48:51;3.53;;;1.09;;
14890;SDS011;7537;48.014;11.590;2022-09-03T22:54:29;1.76;;;1.39;;
14890;SDS011;7537;48.014;11.590;2022-09-03T23:00:00;0.98;;;1.09;;
14890;SDS011;7537;48.014;11.590;2022-09-03T23:05:31;1.40;;;1.18;;
14890;SDS011;7537;48.014;11.590;2022-09-03T23:11:04;2.71;;;1.47;;
14890;SDS011;7537;48.014;11.590;2022-09-03T23:16:35;1.57;;;1.31;;
14890;SDS011;7537;48.014;11.590;2022-09-03T23:22:05;1.66;;;1.44;;
14890;SDS011;7537;48.014;11.590;2022-09-03T23:27:35;1.01;;;0.99;;
14890;SDS011;7537;48.014;11.590;2022-09-03T23:33:05;1.06;;;1.06;;
14890;SDS011;7537;48.014;11.590;2022-09-03T23:38:34;2.40;;;1.42;;
14890;SDS011;7537;48.014;11.590;2022-09-03T23:44:09;2.82;;;1.19;;
14890;SDS011;7537;48.014;11.590;2022-09-03T23:49:42;1.25;;;1.31;;
14890;SDS011;7537;48.014;11.590;2022-09-03T23:55:20;1.83;;;0.97;;
